sensor_id;sensor_type;location;lat;lon;timestamp;pressure;altitude;pressure_sealevel;temperature;humidity
6413;BME280;3239;48.714;9.472;2022-10-29T00:00:38;99649.41;;;12.63;100.00
6413;BME280;3239;48.714;9.472;2022-10-29T00:03:04;99644.91;;;12.60;100.00
6413;BME280;3239;48.714;9.472;2022-10-29T00:05:30;99645.66;;;12.61;100.00
6413;BME280;3239;48.714;9.472;2022-10-29T00:07:56;99645.41;;;12.64;100.00
6413;BME280;3239;48.714;9.472;2022-10-29T00:10:22;99638.16;;;12.61;100.00
6413;BME280;3239;48.714;9.472;2022-10-29T00:12:48;99643.66;;;12.56;100.00
6413;BME280;3239;48.714;9.472;2022-10-29T00:15:13;99645.66;;;12.50;100.00
6413;BME280;3239;48.714;9.472;2022-10-29T00:17:39;99635.69;;;12.47;100.00
6413;BME280;3239;48.714;9.472;2022-10-29T00:20:06;99632.44;;;12.43;100.00
6413;BME280;3239;48.714;9.472;2022-10-29T00:22:32;99635.69;;;12.41;100.00
6413;BME280;3239;48.714;9.472;2022-10-29T00:24:58;99628.44;;;12.44;100.00
6413;BME280;3239;48.714;9.472;2022-10-29T00:27:23;99632.44;;;12.37;100.00
6413;BME280;3239;48.714;9.472;2022-10-29T00:29:49;99631.69;;;12.31;100.00
6413;BME280;3239;48.714;9.472;2022-10-29T00:32:15;99637.19;;;12.26;100.00
6413;BME280;3239;48.714;9.472;2022-10-29T00:34:41;99630.69;;;12.23;100.00
6413;BME280;3239;48.714;9.472;2022-10-29T00:37:06;99637.19;;;12.20;100.00
6413;BME280;3239;48.714;9.472;2022-10-29T00:39:32;99626.69;;;12.24;100.00
6413;BME280;3239;48.714;9.472;2022-10-29T00:41:59;99625.94;;;12.24;100.00
6413;BME280;3239;48.714;9.472;2022-10-29T00:44:43;99626.69;;;12.19;100.00
6413;BME280;3239;48.714;9.472;2022-10-29T00:47:26;99626.94;;;12.10;100.00
6413;BME280;3239;48.714;9.472;2022-10-29T00:50:02;99625.44;;;12.03;100.00
6413;BME280;3239;48.714;9.472;2022-10-29T00:52:31;99625.19;;;12.07;100.00
6413;BME280;3239;48.714;9.472;2022-10-29T00:55:01;99629.19;;;12.06;100.00
6413;BME280;3239;48.714;9.472;2022-10-29T00:57:34;99625.94;;;11.96;100.00
6413;BME280;3239;48.714;9.472;2022-10-29T01:00:01;99635.94;;;11.94;100.00
6413;BME280;3239;48.714;9.472;2022-10-29T01:02:28;99628.69;;;11.96;100.00
6413;BME280;3239;48.714;9.472;2022-10-29T01:04:56;99621.19;;;11.91;100.00
6413;BME280;3239;48.714;9.472;2022-10-29T01:07:22;99616.19;;;11.90;100.00
6413;BME280;3239;48.714;9.472;2022-10-29T01:09:49;99613.94;;;11.88;100.00
6413;BME280;3239;48.714;9.472;2022-10-29T01:12:32;99622.41;;;11.79;100.00
6413;BME280;3239;48.714;9.472;2022-10-29T01:36:03;99610.94;;;11.75;100.00
6413;BME280;3239;48.714;9.472;2022-10-29T01:44:35;99610.94;;;11.81;100.00
6413;BME280;3239;48.714;9.472;2022-10-29T01:47:04;99614.16;;;11.79;100.00
6413;BME280;3239;48.714;9.472;2022-10-29T01:49:38;99606.19;;;11.87;100.00
6413;BME280;3239;48.714;9.472;2022-10-29T01:52:08;99613.19;;;11.93;100.00
6413;BME280;3239;48.714;9.472;2022-10-29T01:54:40;99608.72;;;11.90;100.00
6413;BME280;3239;48.714;9.472;2022-10-29T01:57:45;99613.19;;;11.93;100.00
6413;BME280;3239;48.714;9.472;2022-10-29T02:00:17;99608.19;;;11.92;100.00
6413;BME280;3239;48.714;9.472;2022-10-29T02:03:12;99619.69;;;11.96;100.00
6413;BME280;3239;48.714;9.472;2022-10-29T02:12:26;99607.69;;;11.93;100.00
6413;BME280;3239;48.714;9.472;2022-10-29T02:15:06;99597.22;;;11.86;100.00
6413;BME280;3239;48.714;9.472;2022-10-29T02:17:34;99593.97;;;11.88;100.00
6413;BME280;3239;48.714;9.472;2022-10-29T02:20:06;99588.72;;;11.84;100.00
6413;BME280;3239;48.714;9.472;2022-10-29T02:22:32;99591.25;;;11.88;100.00
6413;BME280;3239;48.714;9.472;2022-10-29T02:24:58;99582.50;;;11.84;100.00
6413;BME280;3239;48.714;9.472;2022-10-29T02:27:24;99580.22;;;11.77;100.00
6413;BME280;3239;48.714;9.472;2022-10-29T02:29:49;99581.22;;;11.74;100.00
6413;BME280;3239;48.714;9.472;2022-10-29T02:32:15;99575.47;;;11.61;100.00
6413;BME280;3239;48.714;9.472;2022-10-29T02:34:41;99578.47;;;11.63;100.00
6413;BME280;3239;48.714;9.472;2022-10-29T02:37:06;99575.22;;;11.64;100.00
6413;BME280;3239;48.714;9.472;2022-10-29T02:39:32;99571.69;;;11.58;100.00
6413;BME280;3239;48.714;9.472;2022-10-29T02:41:58;99572.72;;;11.66;100.00
6413;BME280;3239;48.714;9.472;2022-10-29T02:44:24;99573.72;;;11.69;100.00
6413;BME280;3239;48.714;9.472;2022-10-29T02:46:50;99581.72;;;11.72;100.00
6413;BME280;3239;48.714;9.472;2022-10-29T02:49:15;99582.97;;;11.77;100.00
6413;BME280;3239;48.714;9.472;2022-10-29T02:51:41;99577.72;;;11.84;100.00
6413;BME280;3239;48.714;9.472;2022-10-29T02:54:07;99574.50;;;11.80;100.00
6413;BME280;3239;48.714;9.472;2022-10-29T02:56:33;99574.50;;;11.80;100.00
6413;BME280;3239;48.714;9.472;2022-10-29T02:58:58;99573.25;;;11.81;100.00
6413;BME280;3239;48.714;9.472;2022-10-29T03:01:24;99575.72;;;11.79;100.00
6413;BME280;3239;48.714;9.472;2022-10-29T03:03:50;99570.00;;;11.83;100.00
6413;BME280;3239;48.714;9.472;2022-10-29T03:06:18;99572.50;;;11.92;100.00
6413;BME280;3239;48.714;9.472;2022-10-29T03:08:44;99574.50;;;11.91;100.00
6413;BME280;3239;48.714;9.472;2022-10-29T03:11:11;99569.75;;;11.92;100.00
6413;BME280;3239;48.714;9.472;2022-10-29T03:13:37;99578.25;;;11.94;100.00
6413;BME280;3239;48.714;9.472;2022-10-29T03:16:04;99566.75;;;11.95;100.00
6413;BME280;3239;48.714;9.472;2022-10-29T03:18:30;99566.75;;;11.95;100.00
6413;BME280;3239;48.714;9.472;2022-10-29T03:20:55;99570.75;;;12.00;100.00
6413;BME280;3239;48.714;9.472;2022-10-29T03:23:21;99561.78;;;11.94;100.00
6413;BME280;3239;48.714;9.472;2022-10-29T03:25:51;99565.50;;;11.91;100.00
6413;BME280;3239;48.714;9.472;2022-10-29T03:28:20;99558.25;;;11.93;100.00
6413;BME280;3239;48.714;9.472;2022-10-29T03:30:46;99563.25;;;11.78;100.00
6413;BME280;3239;48.714;9.472;2022-10-29T03:33:12;99568.50;;;11.82;100.00
6413;BME280;3239;48.714;9.472;2022-10-29T03:35:38;99572.75;;;11.83;100.00
6413;BME280;3239;48.714;9.472;2022-10-29T03:38:04;99564.00;;;11.79;100.00
6413;BME280;3239;48.714;9.472;2022-10-29T03:40:30;99569.50;;;11.84;100.00
6413;BME280;3239;48.714;9.472;2022-10-29T03:42:56;99558.97;;;11.61;100.00
6413;BME280;3239;48.714;9.472;2022-10-29T03:45:21;99566.69;;;11.51;100.00
6413;BME280;3239;48.714;9.472;2022-10-29T03:47:47;99573.22;;;11.59;100.00
6413;BME280;3239;48.714;9.472;2022-10-29T03:50:13;99571.97;;;11.66;100.00
6413;BME280;3239;48.714;9.472;2022-10-29T03:52:38;99578.72;;;11.70;100.00
6413;BME280;3239;48.714;9.472;2022-10-29T03:55:05;99570.47;;;11.65;100.00
6413;BME280;3239;48.714;9.472;2022-10-29T03:57:31;99569.72;;;11.59;100.00
6413;BME280;3239;48.714;9.472;2022-10-29T03:59:57;99567.97;;;11.61;100.00
6413;BME280;3239;48.714;9.472;2022-10-29T04:02:23;99565.00;;;11.65;100.00
6413;BME280;3239;48.714;9.472;2022-10-29T04:04:49;99559.25;;;11.68;100.00
6413;BME280;3239;48.714;9.472;2022-10-29T04:07:15;99565.25;;;11.78;100.00
6413;BME280;3239;48.714;9.472;2022-10-29T04:09:41;99560.78;;;11.80;100.00
6413;BME280;3239;48.714;9.472;2022-10-29T04:12:07;99567.75;;;11.87;100.00
6413;BME280;3239;48.714;9.472;2022-10-29T04:14:33;99566.00;;;11.89;100.00
6413;BME280;3239;48.714;9.472;2022-10-29T04:16:59;99562.25;;;11.92;100.00
6413;BME280;3239;48.714;9.472;2022-10-29T04:19:24;99568.25;;;11.91;100.00
6413;BME280;3239;48.714;9.472;2022-10-29T04:21:50;99567.53;;;11.90;100.00
6413;BME280;3239;48.714;9.472;2022-10-29T04:24:16;99567.00;;;11.86;100.00
6413;BME280;3239;48.714;9.472;2022-10-29T04:26:43;99565.50;;;11.80;100.00
6413;BME280;3239;48.714;9.472;2022-10-29T04:29:09;99565.00;;;11.70;100.00
6413;BME280;3239;48.714;9.472;2022-10-29T04:31:36;99557.00;;;11.61;100.00
6413;BME280;3239;48.714;9.472;2022-10-29T04:34:02;99565.25;;;11.67;100.00
6413;BME280;3239;48.714;9.472;2022-10-29T04:36:28;99578.22;;;11.66;100.00
6413;BME280;3239;48.714;9.472;2022-10-29T04:38:54;99589.97;;;11.78;100.00
6413;BME280;3239;48.714;9.472;2022-10-29T04:41:20;99584.22;;;11.70;100.00
6413;BME280;3239;48.714;9.472;2022-10-29T04:43:45;99591.72;;;11.64;100.00
6413;BME280;3239;48.714;9.472;2022-10-29T04:46:11;99578.19;;;11.61;100.00
6413;BME280;3239;48.714;9.472;2022-10-29T04:48:37;99580.22;;;11.66;100.00
6413;BME280;3239;48.714;9.472;2022-10-29T04:51:03;99586.47;;;11.66;100.00
6413;BME280;3239;48.714;9.472;2022-10-29T04:53:29;99577.72;;;11.73;100.00
6413;BME280;3239;48.714;9.472;2022-10-29T04:56:00;99581.22;;;11.74;100.00
6413;BME280;3239;48.714;9.472;2022-10-29T04:58:27;99573.50;;;11.78;100.00
6413;BME280;3239;48.714;9.472;2022-10-29T05:00:53;99574.50;;;11.69;100.00
6413;BME280;3239;48.714;9.472;2022-10-29T05:03:19;99569.00;;;11.69;100.00
6413;BME280;3239;48.714;9.472;2022-10-29T05:05:44;99569.44;;;11.57;100.00
6413;BME280;3239;48.714;9.472;2022-10-29T05:08:10;99570.44;;;11.54;100.00
6413;BME280;3239;48.714;9.472;2022-10-29T05:10:38;99565.19;;;11.50;100.00
6413;BME280;3239;48.714;9.472;2022-10-29T05:13:10;99567.91;;;11.45;100.00
6413;BME280;3239;48.714;9.472;2022-10-29T05:15:37;99563.44;;;11.47;100.00
6413;BME280;3239;48.714;9.472;2022-10-29T05:18:04;99556.94;;;11.39;100.00
6413;BME280;3239;48.714;9.472;2022-10-29T05:20:30;99555.94;;;11.37;100.00
6413;BME280;3239;48.714;9.472;2022-10-29T05:23:07;99558.91;;;11.39;100.00
6413;BME280;3239;48.714;9.472;2022-10-29T05:25:40;99564.16;;;11.42;100.00
6413;BME280;3239;48.714;9.472;2022-10-29T05:28:19;99561.19;;;11.46;100.00
6413;BME280;3239;48.714;9.472;2022-10-29T05:30:46;99559.19;;;11.41;100.00
6413;BME280;3239;48.714;9.472;2022-10-29T05:33:15;99561.41;;;11.37;100.00
6413;BME280;3239;48.714;9.472;2022-10-29T05:35:42;99555.69;;;11.40;100.00
6413;BME280;3239;48.714;9.472;2022-10-29T05:38:11;99561.91;;;11.35;100.00
6413;BME280;3239;48.714;9.472;2022-10-29T05:40:38;99562.66;;;11.36;100.00
6413;BME280;3239;48.714;9.472;2022-10-29T05:43:04;99557.16;;;11.30;100.00
6413;BME280;3239;48.714;9.472;2022-10-29T05:45:30;99570.88;;;11.30;100.00
6413;BME280;3239;48.714;9.472;2022-10-29T05:48:01;99566.63;;;11.29;100.00
6413;BME280;3239;48.714;9.472;2022-10-29T05:50:28;99568.91;;;11.31;100.00
6413;BME280;3239;48.714;9.472;2022-10-29T05:53:00;99575.63;;;11.30;100.00
6413;BME280;3239;48.714;9.472;2022-10-29T05:55:27;99576.38;;;11.30;100.00
6413;BME280;3239;48.714;9.472;2022-10-29T05:57:58;99568.91;;;11.31;100.00
6413;BME280;3239;48.714;9.472;2022-10-29T06:00:27;99574.38;;;11.31;100.00
6413;BME280;3239;48.714;9.472;2022-10-29T06:02:53;99575.63;;;11.30;100.00
6413;BME280;3239;48.714;9.472;2022-10-29T06:05:19;99573.63;;;11.25;100.00
6413;BME280;3239;48.714;9.472;2022-10-29T06:07:45;99569.63;;;11.26;100.00
6413;BME280;3239;48.714;9.472;2022-10-29T06:10:11;99568.13;;;11.25;100.00
6413;BME280;3239;48.714;9.472;2022-10-29T06:12:36;99575.59;;;11.24;100.00
6413;BME280;3239;48.714;9.472;2022-10-29T06:15:02;99573.09;;;11.26;100.00
6413;BME280;3239;48.714;9.472;2022-10-29T06:17:28;99571.59;;;11.25;100.00
6413;BME280;3239;48.714;9.472;2022-10-29T06:19:54;99581.09;;;11.24;100.00
6413;BME280;3239;48.714;9.472;2022-10-29T06:22:20;99579.09;;;11.25;100.00
6413;BME280;3239;48.714;9.472;2022-10-29T06:24:45;99588.34;;;11.27;100.00
6413;BME280;3239;48.714;9.472;2022-10-29T06:27:11;99579.09;;;11.30;100.00
6413;BME280;3239;48.714;9.472;2022-10-29T06:29:37;99595.06;;;11.26;100.00
6413;BME280;3239;48.714;9.472;2022-10-29T06:32:03;99598.34;;;11.36;100.00
6413;BME280;3239;48.714;9.472;2022-10-29T06:34:29;99587.13;;;11.39;100.00
6413;BME280;3239;48.714;9.472;2022-10-29T06:36:55;99592.13;;;11.46;100.00
6413;BME280;3239;48.714;9.472;2022-10-29T06:39:20;99596.63;;;11.55;100.00
6413;BME280;3239;48.714;9.472;2022-10-29T06:41:46;99595.19;;;11.59;100.00
6413;BME280;3239;48.714;9.472;2022-10-29T06:44:12;99590.97;;;11.69;100.00
6413;BME280;3239;48.714;9.472;2022-10-29T06:46:37;99592.94;;;11.69;100.00
6413;BME280;3239;48.714;9.472;2022-10-29T06:49:04;99576.63;;;11.32;100.00
6413;BME280;3239;48.714;9.472;2022-10-29T06:51:29;99591.16;;;11.49;100.00
6413;BME280;3239;48.714;9.472;2022-10-29T06:53:55;99580.13;;;11.38;100.00
6413;BME280;3239;48.714;9.472;2022-10-29T06:56:21;99584.16;;;11.54;100.00
6413;BME280;3239;48.714;9.472;2022-10-29T06:58:47;99586.22;;;11.75;100.00
6413;BME280;3239;48.714;9.472;2022-10-29T07:01:12;99581.72;;;11.67;100.00
6413;BME280;3239;48.714;9.472;2022-10-29T07:03:38;99573.97;;;11.60;100.00
6413;BME280;3239;48.714;9.472;2022-10-29T07:06:04;99567.25;;;11.88;100.00
6413;BME280;3239;48.714;9.472;2022-10-29T07:08:30;99580.22;;;12.26;100.00
6413;BME280;3239;48.714;9.472;2022-10-29T07:10:57;99566.91;;;12.63;100.00
6413;BME280;3239;48.714;9.472;2022-10-29T07:13:23;99552.06;;;13.05;100.00
6413;BME280;3239;48.714;9.472;2022-10-29T07:15:49;99532.47;;;13.19;100.00
6413;BME280;3239;48.714;9.472;2022-10-29T07:18:14;99507.97;;;13.10;100.00
6413;BME280;3239;48.714;9.472;2022-10-29T07:20:43;99492.94;;;13.17;100.00
6413;BME280;3239;48.714;9.472;2022-10-29T07:23:10;99476.63;;;13.24;100.00
6413;BME280;3239;48.714;9.472;2022-10-29T07:25:38;99469.19;;;13.49;100.00
6413;BME280;3239;48.714;9.472;2022-10-29T07:30:39;99403.38;;;14.23;100.00
6413;BME280;3239;48.714;9.472;2022-10-29T07:33:05;99349.16;;;13.64;100.00
6413;BME280;3239;48.714;9.472;2022-10-29T07:35:32;99343.97;;;13.79;100.00
6413;BME280;3239;48.714;9.472;2022-10-29T07:38:03;99337.75;;;13.79;100.00
6413;BME280;3239;48.714;9.472;2022-10-29T07:40:29;99319.94;;;14.22;100.00
6413;BME280;3239;48.714;9.472;2022-10-29T07:42:55;99292.66;;;14.37;100.00
6413;BME280;3239;48.714;9.472;2022-10-29T07:45:21;99275.97;;;14.30;100.00
6413;BME280;3239;48.714;9.472;2022-10-29T07:47:47;99268.00;;;14.08;100.00
6413;BME280;3239;48.714;9.472;2022-10-29T07:50:14;99279.13;;;14.21;100.00
6413;BME280;3239;48.714;9.472;2022-10-29T07:52:40;99270.09;;;14.39;100.00
6413;BME280;3239;48.714;9.472;2022-10-29T07:55:07;99271.66;;;14.34;100.00
6413;BME280;3239;48.714;9.472;2022-10-29T07:57:33;99273.69;;;14.34;100.00
6413;BME280;3239;48.714;9.472;2022-10-29T07:59:59;99268.94;;;14.97;100.00
6413;BME280;3239;48.714;9.472;2022-10-29T08:02:25;99248.19;;;15.74;100.00
6413;BME280;3239;48.714;9.472;2022-10-29T08:04:50;99212.19;;;15.41;100.00
6413;BME280;3239;48.714;9.472;2022-10-29T08:07:16;99195.91;;;15.11;100.00
6413;BME280;3239;48.714;9.472;2022-10-29T08:09:42;99205.78;;;15.07;100.00
6413;BME280;3239;48.714;9.472;2022-10-29T08:12:09;99221.72;;;15.27;100.00
6413;BME280;3239;48.714;9.472;2022-10-29T08:14:35;99217.47;;;14.68;100.00
6413;BME280;3239;48.714;9.472;2022-10-29T08:17:01;99243.88;;;14.95;100.00
6413;BME280;3239;48.714;9.472;2022-10-29T08:19:27;99248.28;;;15.82;100.00
6413;BME280;3239;48.714;9.472;2022-10-29T08:21:55;99213.44;;;15.79;100.00
6413;BME280;3239;48.714;9.472;2022-10-29T08:24:21;99209.16;;;16.24;100.00
6413;BME280;3239;48.714;9.472;2022-10-29T08:26:49;99190.44;;;16.51;100.00
6413;BME280;3239;48.714;9.472;2022-10-29T08:29:16;99157.78;;;16.98;100.00
6413;BME280;3239;48.714;9.472;2022-10-29T08:31:41;99119.38;;;16.25;100.00
6413;BME280;3239;48.714;9.472;2022-10-29T08:34:07;99132.53;;;16.32;100.00
6413;BME280;3239;48.714;9.472;2022-10-29T08:36:33;99144.34;;;16.33;100.00
6413;BME280;3239;48.714;9.472;2022-10-29T08:38:59;99147.56;;;16.24;100.00
6413;BME280;3239;48.714;9.472;2022-10-29T08:41:45;99132.09;;;16.90;100.00
6413;BME280;3239;48.714;9.472;2022-10-29T08:47:18;99069.41;;;18.08;100.00
6413;BME280;3239;48.714;9.472;2022-10-29T08:52:27;99027.19;;;18.77;100.00
6413;BME280;3239;48.714;9.472;2022-10-29T08:55:29;98997.69;;;19.93;100.00
6413;BME280;3239;48.714;9.472;2022-10-29T08:58:32;98978.00;;;21.34;100.00
6413;BME280;3239;48.714;9.472;2022-10-29T09:01:00;98968.34;;;20.41;100.00
6413;BME280;3239;48.714;9.472;2022-10-29T09:03:27;98966.44;;;19.85;100.00
6413;BME280;3239;48.714;9.472;2022-10-29T09:06:13;98973.13;;;19.82;100.00
6413;BME280;3239;48.714;9.472;2022-10-29T09:15:53;98940.66;;;20.94;100.00
6413;BME280;3239;48.714;9.472;2022-10-29T09:24:35;98910.25;;;21.68;100.00
6413;BME280;3239;48.714;9.472;2022-10-29T09:30:52;98883.47;;;22.10;100.00
6413;BME280;3239;48.714;9.472;2022-10-29T09:33:21;98880.97;;;21.23;100.00
6413;BME280;3239;48.714;9.472;2022-10-29T09:35:56;98872.84;;;21.44;100.00
6413;BME280;3239;48.714;9.472;2022-10-29T09:38:33;98851.94;;;23.45;100.00
6413;BME280;3239;48.714;9.472;2022-10-29T09:41:01;98861.50;;;24.03;100.00
6413;BME280;3239;48.714;9.472;2022-10-29T09:52:07;98852.59;;;23.34;100.00
6413;BME280;3239;48.714;9.472;2022-10-29T09:54:37;98849.91;;;22.86;100.00
6413;BME280;3239;48.714;9.472;2022-10-29T09:57:03;98861.75;;;22.66;100.00
6413;BME280;3239;48.714;9.472;2022-10-29T09:59:39;98843.50;;;22.55;100.00
6413;BME280;3239;48.714;9.472;2022-10-29T10:02:35;98841.34;;;23.43;100.00
6413;BME280;3239;48.714;9.472;2022-10-29T10:07:37;98831.41;;;24.57;98.08
6413;BME280;3239;48.714;9.472;2022-10-29T10:10:06;98819.56;;;25.83;93.91
6413;BME280;3239;48.714;9.472;2022-10-29T10:12:46;98815.59;;;25.40;87.02
6413;BME280;3239;48.714;9.472;2022-10-29T10:20:39;98811.41;;;24.95;87.28
6413;BME280;3239;48.714;9.472;2022-10-29T10:23:29;98810.94;;;24.54;87.97
6413;BME280;3239;48.714;9.472;2022-10-29T10:26:03;98811.19;;;25.48;96.26
6413;BME280;3239;48.714;9.472;2022-10-29T10:28:31;98810.31;;;25.00;88.58
6413;BME280;3239;48.714;9.472;2022-10-29T10:33:30;98800.38;;;28.26;69.58
6413;BME280;3239;48.714;9.472;2022-10-29T10:36:07;98800.34;;;27.02;62.66
6413;BME280;3239;48.714;9.472;2022-10-29T10:38:44;98799.56;;;26.25;68.13
6413;BME280;3239;48.714;9.472;2022-10-29T10:41:12;98797.72;;;26.18;68.02
6413;BME280;3239;48.714;9.472;2022-10-29T10:43:46;98790.81;;;27.21;65.53
6413;BME280;3239;48.714;9.472;2022-10-29T10:46:38;98796.25;;;25.80;74.03
6413;BME280;3239;48.714;9.472;2022-10-29T10:49:15;98785.72;;;27.31;67.71
6413;BME280;3239;48.714;9.472;2022-10-29T10:51:49;98782.16;;;27.44;67.94
6413;BME280;3239;48.714;9.472;2022-10-29T10:54:38;98774.81;;;26.60;66.36
6413;BME280;3239;48.714;9.472;2022-10-29T11:00:03;98772.13;;;27.14;64.80
6413;BME280;3239;48.714;9.472;2022-10-29T11:03:19;98771.41;;;26.11;70.61
6413;BME280;3239;48.714;9.472;2022-10-29T11:08:37;98771.13;;;28.33;61.36
6413;BME280;3239;48.714;9.472;2022-10-29T11:11:16;98764.50;;;27.70;58.81
6413;BME280;3239;48.714;9.472;2022-10-29T11:13:44;98760.28;;;27.42;60.73
6413;BME280;3239;48.714;9.472;2022-10-29T11:16:44;98763.94;;;28.90;58.47
6413;BME280;3239;48.714;9.472;2022-10-29T11:19:35;98749.00;;;30.70;51.94
6413;BME280;3239;48.714;9.472;2022-10-29T11:25:20;98746.06;;;28.99;51.14
6413;BME280;3239;48.714;9.472;2022-10-29T11:28:08;98746.47;;;28.62;51.89
6413;BME280;3239;48.714;9.472;2022-10-29T11:30:45;98748.69;;;28.35;56.08
6413;BME280;3239;48.714;9.472;2022-10-29T11:33:43;98744.88;;;30.03;49.50
6413;BME280;3239;48.714;9.472;2022-10-29T11:36:24;98736.44;;;30.75;44.40
6413;BME280;3239;48.714;9.472;2022-10-29T11:38:59;98733.34;;;32.07;43.52
6413;BME280;3239;48.714;9.472;2022-10-29T11:41:37;98723.63;;;31.11;44.31
6413;BME280;3239;48.714;9.472;2022-10-29T11:44:11;98724.69;;;31.82;42.97
6413;BME280;3239;48.714;9.472;2022-10-29T11:47:12;98720.44;;;32.71;39.62
6413;BME280;3239;48.714;9.472;2022-10-29T11:58:44;98707.69;;;31.82;40.36
6413;BME280;3239;48.714;9.472;2022-10-29T12:04:34;98700.91;;;31.28;43.49
6413;BME280;3239;48.714;9.472;2022-10-29T12:10:24;98700.81;;;32.10;39.26
6413;BME280;3239;48.714;9.472;2022-10-29T12:18:45;98684.09;;;33.69;36.70
6413;BME280;3239;48.714;9.472;2022-10-29T12:21:52;98675.25;;;34.14;35.15
6413;BME280;3239;48.714;9.472;2022-10-29T12:25:09;98667.78;;;35.31;32.95
6413;BME280;3239;48.714;9.472;2022-10-29T12:31:01;98661.31;;;35.29;32.19
6413;BME280;3239;48.714;9.472;2022-10-29T12:33:58;98666.25;;;33.12;35.44
6413;BME280;3239;48.714;9.472;2022-10-29T12:42:20;98645.13;;;35.02;32.38
6413;BME280;3239;48.714;9.472;2022-10-29T12:48:09;98651.81;;;32.29;35.62
6413;BME280;3239;48.714;9.472;2022-10-29T12:51:06;98642.16;;;33.13;34.62
6413;BME280;3239;48.714;9.472;2022-10-29T12:56:22;98624.88;;;35.23;32.17
6413;BME280;3239;48.714;9.472;2022-10-29T12:58:51;98620.66;;;34.53;33.38
6413;BME280;3239;48.714;9.472;2022-10-29T13:06:43;98623.59;;;31.67;38.35
6413;BME280;3239;48.714;9.472;2022-10-29T13:09:21;98616.16;;;31.34;40.29
6413;BME280;3239;48.714;9.472;2022-10-29T13:11:53;98620.63;;;32.29;37.68
6413;BME280;3239;48.714;9.472;2022-10-29T13:14:46;98616.00;;;31.95;37.89
6413;BME280;3239;48.714;9.472;2022-10-29T13:17:36;98610.00;;;32.30;38.74
6413;BME280;3239;48.714;9.472;2022-10-29T13:20:26;98607.81;;;31.81;39.60
6413;BME280;3239;48.714;9.472;2022-10-29T13:22:58;98609.19;;;30.77;42.80
6413;BME280;3239;48.714;9.472;2022-10-29T13:30:41;98602.13;;;33.03;37.76
6413;BME280;3239;48.714;9.472;2022-10-29T13:36:44;98600.66;;;32.25;38.40
6413;BME280;3239;48.714;9.472;2022-10-29T13:39:00;98594.22;;;32.74;37.20
6413;BME280;3239;48.714;9.472;2022-10-29T13:41:47;98585.56;;;32.68;38.42
6413;BME280;3239;48.714;9.472;2022-10-29T13:44:25;98589.72;;;30.87;42.38
6413;BME280;3239;48.714;9.472;2022-10-29T13:47:00;98593.88;;;30.64;44.57
6413;BME280;3239;48.714;9.472;2022-10-29T13:49:33;98590.13;;;31.83;43.83
6413;BME280;3239;48.714;9.472;2022-10-29T13:55:04;98592.25;;;30.03;49.37
6413;BME280;3239;48.714;9.472;2022-10-29T13:57:47;98589.38;;;30.01;50.84
6413;BME280;3239;48.714;9.472;2022-10-29T14:00:20;98591.22;;;30.12;51.69
6413;BME280;3239;48.714;9.472;2022-10-29T14:03:19;98585.16;;;30.02;52.71
6413;BME280;3239;48.714;9.472;2022-10-29T14:06:06;98578.34;;;30.26;51.89
6413;BME280;3239;48.714;9.472;2022-10-29T14:08:42;98578.88;;;30.03;52.68
6413;BME280;3239;48.714;9.472;2022-10-29T14:11:19;98581.09;;;29.02;57.69
6413;BME280;3239;48.714;9.472;2022-10-29T14:13:51;98577.25;;;30.16;56.23
6413;BME280;3239;48.714;9.472;2022-10-29T14:16:23;98571.47;;;30.90;55.84
6413;BME280;3239;48.714;9.472;2022-10-29T14:18:50;98574.34;;;30.92;56.89
6413;BME280;3239;48.714;9.472;2022-10-29T14:26:24;98558.31;;;30.98;55.87
6413;BME280;3239;48.714;9.472;2022-10-29T14:28:51;98560.94;;;30.14;57.62
6413;BME280;3239;48.714;9.472;2022-10-29T14:31:23;98557.38;;;29.42;61.46
6413;BME280;3239;48.714;9.472;2022-10-29T14:33:58;98553.59;;;30.07;62.10
6413;BME280;3239;48.714;9.472;2022-10-29T14:36:43;98558.50;;;31.04;56.43
6413;BME280;3239;48.714;9.472;2022-10-29T14:41:49;98556.81;;;30.56;66.11
6413;BME280;3239;48.714;9.472;2022-10-29T14:44:30;98547.84;;;29.51;77.11
6413;BME280;3239;48.714;9.472;2022-10-29T14:47:12;98553.56;;;29.35;82.54
6413;BME280;3239;48.714;9.472;2022-10-29T14:49:47;98560.63;;;27.91;100.00
6413;BME280;3239;48.714;9.472;2022-10-29T14:52:43;98559.00;;;27.86;100.00
6413;BME280;3239;48.714;9.472;2022-10-29T14:55:19;98562.00;;;27.90;100.00
6413;BME280;3239;48.714;9.472;2022-10-29T14:58:24;98561.56;;;27.51;100.00
6413;BME280;3239;48.714;9.472;2022-10-29T15:00:57;98567.69;;;27.18;100.00
6413;BME280;3239;48.714;9.472;2022-10-29T15:03:29;98560.38;;;26.84;100.00
6413;BME280;3239;48.714;9.472;2022-10-29T15:06:26;98559.94;;;26.22;100.00
6413;BME280;3239;48.714;9.472;2022-10-29T15:08:57;98561.50;;;25.87;100.00
6413;BME280;3239;48.714;9.472;2022-10-29T15:11:59;98557.69;;;25.44;100.00
6413;BME280;3239;48.714;9.472;2022-10-29T15:14:35;98568.19;;;25.07;100.00
6413;BME280;3239;48.714;9.472;2022-10-29T15:17:09;98570.09;;;24.79;100.00
6413;BME280;3239;48.714;9.472;2022-10-29T15:19:36;98574.50;;;24.48;100.00
6413;BME280;3239;48.714;9.472;2022-10-29T15:22:13;98573.16;;;24.26;100.00
6413;BME280;3239;48.714;9.472;2022-10-29T15:24:45;98561.75;;;23.78;100.00
6413;BME280;3239;48.714;9.472;2022-10-29T15:27:14;98581.63;;;23.49;100.00
6413;BME280;3239;48.714;9.472;2022-10-29T15:29:43;98589.06;;;23.24;100.00
6413;BME280;3239;48.714;9.472;2022-10-29T15:32:14;98595.91;;;23.11;100.00
6413;BME280;3239;48.714;9.472;2022-10-29T15:34:52;98602.38;;;22.93;100.00
6413;BME280;3239;48.714;9.472;2022-10-29T15:42:27;98610.31;;;22.35;100.00
6413;BME280;3239;48.714;9.472;2022-10-29T15:47:33;98622.31;;;21.98;100.00
6413;BME280;3239;48.714;9.472;2022-10-29T15:49:59;98627.47;;;21.82;100.00
6413;BME280;3239;48.714;9.472;2022-10-29T15:52:36;98638.06;;;21.65;100.00
6413;BME280;3239;48.714;9.472;2022-10-29T15:55:28;98645.56;;;21.43;100.00
6413;BME280;3239;48.714;9.472;2022-10-29T15:58:12;98659.63;;;21.26;100.00
6413;BME280;3239;48.714;9.472;2022-10-29T16:00:39;98674.88;;;21.16;100.00
6413;BME280;3239;48.714;9.472;2022-10-29T16:03:20;98678.66;;;21.01;100.00
6413;BME280;3239;48.714;9.472;2022-10-29T16:05:56;98689.03;;;20.91;100.00
6413;BME280;3239;48.714;9.472;2022-10-29T16:11:15;98710.78;;;20.66;100.00
6413;BME280;3239;48.714;9.472;2022-10-29T16:13:42;98716.88;;;20.55;100.00